Time;durP1;ratioP1;P1;durP2;ratioP2;P2;SDS_P1;SDS_P2;PMS_P1;PMS_P2;Temp;Humidity;BMP_temperature;BMP_pressure;BME280_temperature;BME280_humidity;BME280_pressure;Samples;Min_cycle;Max_cycle;Signal;HPM_P1;HPM_P2
2022/12/02 00:00:55;;;;;;;73.35;27.73;;;2.10;99.90;;;;;;5100109;28;20450;-89
2022/12/02 00:03:24;;;;;;;79.25;27.73;;;2.10;99.90;;;;;;5091828;28;20466;-89
2022/12/02 00:05:54;;;;;;;75.20;27.17;;;2.10;99.90;;;;;;5099530;28;20086;-89
2022/12/02 00:08:28;;;;;;;74.10;27.08;;;2.10;99.90;;;;;;5088112;28;20523;-88
2022/12/02 00:10:56;;;;;;;71.57;28.17;;;2.10;99.90;;;;;;5089798;28;20027;-88
2022/12/02 00:13:25;;;;;;;88.07;30.40;;;2.10;99.90;;;;;;5092043;28;20020;-88
2022/12/02 00:15:57;;;;;;;67.35;26.50;;;2.10;99.90;;;;;;5102255;28;20067;-88
2022/12/02 00:18:24;;;;;;;68.90;28.35;;;2.10;99.90;;;;;;5102544;28;20028;-88
2022/12/02 00:20:49;;;;;;;73.65;28.48;;;2.10;99.90;;;;;;5085986;28;20035;-88
2022/12/02 00:23:17;;;;;;;75.75;29.33;;;2.10;99.90;;;;;;5102204;27;20020;-89
2022/12/02 00:25:46;;;;;;;68.57;29.10;;;2.10;99.90;;;;;;5094469;28;20028;-89
2022/12/02 00:28:12;;;;;;;77.20;30.30;;;2.10;99.90;;;;;;5081920;28;20035;-89
2022/12/02 00:30:39;;;;;;;68.05;27.58;;;2.10;99.90;;;;;;5086833;28;20391;-88
2022/12/02 00:33:08;;;;;;;78.60;29.45;;;2.10;99.90;;;;;;5100731;28;20015;-89
2022/12/02 00:35:34;;;;;;;74.30;28.08;;;2.10;99.90;;;;;;5085884;28;20055;-89
2022/12/02 00:37:59;;;;;;;64.68;26.35;;;2.10;99.90;;;;;;5093319;28;20028;-89
2022/12/02 00:40:25;;;;;;;73.68;28.88;;;2.10;99.90;;;;;;5080206;28;20020;-89
2022/12/02 00:42:51;;;;;;;80.80;29.35;;;2.10;99.90;;;;;;5085868;28;20036;-89
2022/12/02 00:48:01;;;;;;;69.70;27.55;;;2.10;99.90;;;;;;5092141;28;20024;-89
2022/12/02 00:50:28;;;;;;;70.50;27.90;;;2.10;99.90;;;;;;5096638;28;20020;-89
2022/12/02 00:52:54;;;;;;;67.00;27.40;;;2.20;99.90;;;;;;5100297;28;20531;-89
2022/12/02 00:55:22;;;;;;;69.25;26.85;;;2.10;99.90;;;;;;5095004;28;20058;-89
2022/12/02 00:57:47;;;;;;;65.50;26.15;;;2.10;99.90;;;;;;5103424;28;20024;-88
2022/12/02 01:00:26;;;;;;;64.40;28.48;;;2.10;99.90;;;;;;5093844;28;20027;-89
2022/12/02 01:02:52;;;;;;;74.03;28.00;;;2.10;99.90;;;;;;5094696;28;20097;-89
2022/12/02 01:05:17;;;;;;;69.13;28.42;;;2.10;99.90;;;;;;5092782;28;20107;-89
2022/12/02 01:07:43;;;;;;;68.97;28.63;;;2.10;99.90;;;;;;5093118;28;20032;-89
2022/12/02 01:10:09;;;;;;;69.15;29.05;;;2.20;99.90;;;;;;5091876;28;20539;-89
2022/12/02 01:12:35;;;;;;;69.57;28.27;;;2.10;99.90;;;;;;5098376;28;20031;-89
2022/12/02 01:15:00;;;;;;;73.35;28.10;;;2.10;99.90;;;;;;5104831;28;20049;-89
2022/12/02 01:17:26;;;;;;;62.65;27.27;;;2.10;99.90;;;;;;5092527;28;20024;-88
2022/12/02 01:19:53;;;;;;;73.43;28.90;;;2.10;99.90;;;;;;5093770;28;20020;-89
2022/12/02 01:22:19;;;;;;;70.63;28.48;;;2.10;99.90;;;;;;5091872;28;20027;-89
2022/12/02 01:24:45;;;;;;;75.50;31.42;;;2.10;99.90;;;;;;5089429;28;20016;-89
2022/12/02 01:27:10;;;;;;;76.85;28.02;;;2.10;99.90;;;;;;5108938;28;20019;-89
2022/12/02 01:29:36;;;;;;;63.78;26.70;;;2.10;99.90;;;;;;5096858;28;20027;-89
2022/12/02 01:32:02;;;;;;;70.97;27.48;;;2.10;99.90;;;;;;5090560;28;20471;-89
2022/12/02 01:34:28;;;;;;;68.95;27.40;;;2.10;99.90;;;;;;5108881;28;20381;-89
2022/12/02 01:36:54;;;;;;;72.93;27.15;;;2.00;99.90;;;;;;5089865;28;20038;-89
2022/12/02 01:39:19;;;;;;;70.45;28.77;;;2.10;99.90;;;;;;5095695;28;20027;-88
2022/12/02 01:41:45;;;;;;;77.60;29.13;;;2.00;99.90;;;;;;5097322;28;20027;-88
2022/12/02 01:44:11;;;;;;;70.15;28.08;;;2.00;99.90;;;;;;5105180;28;20027;-88
2022/12/02 01:46:37;;;;;;;70.72;26.42;;;2.00;99.90;;;;;;5095712;28;20401;-89
2022/12/02 01:49:03;;;;;;;74.00;27.48;;;2.00;99.90;;;;;;5098789;28;20221;-88
2022/12/02 01:51:29;;;;;;;72.38;28.90;;;2.00;99.90;;;;;;5095335;28;20020;-89
2022/12/02 01:53:55;;;;;;;78.63;29.42;;;2.00;99.90;;;;;;5090849;28;20023;-88
2022/12/02 01:56:20;;;;;;;68.28;27.52;;;2.10;99.90;;;;;;5091283;28;20156;-88
2022/12/02 01:58:46;;;;;;;73.00;27.38;;;2.10;99.90;;;;;;5092708;28;20039;-89
2022/12/02 02:01:26;;;;;;;65.38;26.67;;;2.00;99.90;;;;;;5099974;28;20031;-88
2022/12/02 02:03:52;;;;;;;70.07;28.42;;;2.00;99.90;;;;;;5082254;28;20043;-89
2022/12/02 02:06:18;;;;;;;67.70;28.85;;;2.00;99.90;;;;;;5103697;28;20019;-89
2022/12/02 02:08:45;;;;;;;76.43;29.02;;;2.00;99.90;;;;;;5102691;28;20424;-89
2022/12/02 02:11:11;;;;;;;74.45;28.75;;;2.00;99.90;;;;;;5086430;28;20027;-89
2022/12/02 02:13:37;;;;;;;71.15;27.80;;;2.00;99.90;;;;;;5104212;28;20114;-89
2022/12/02 02:16:03;;;;;;;72.63;29.38;;;2.00;99.90;;;;;;5099019;28;20024;-89
2022/12/02 02:18:29;;;;;;;69.35;27.52;;;2.00;99.90;;;;;;5095552;28;20052;-89
2022/12/02 02:20:57;;;;;;;65.50;27.67;;;2.00;99.90;;;;;;5091627;28;20111;-89
2022/12/02 02:23:25;;;;;;;76.85;29.52;;;2.00;99.90;;;;;;5094500;28;20076;-88
2022/12/02 02:25:58;;;;;;;72.03;29.00;;;2.00;99.90;;;;;;5087349;28;20064;-89
2022/12/02 02:28:30;;;;;;;69.65;27.35;;;2.00;99.90;;;;;;5109141;27;20016;-89
2022/12/02 02:30:57;;;;;;;84.53;31.50;;;2.00;99.90;;;;;;5086981;28;20031;-89
2022/12/02 02:33:30;;;;;;;81.07;30.05;;;2.00;99.90;;;;;;5088059;28;20021;-89
2022/12/02 02:35:56;;;;;;;80.75;29.50;;;2.00;99.90;;;;;;5094998;28;20028;-89
2022/12/02 02:38:25;;;;;;;74.05;28.55;;;2.00;99.90;;;;;;5094067;28;20077;-89
2022/12/02 02:40:53;;;;;;;79.38;28.90;;;2.00;99.90;;;;;;5110171;27;20036;-89
2022/12/02 02:43:21;;;;;;;82.68;29.65;;;2.00;99.90;;;;;;5099381;28;20048;-89
2022/12/02 02:45:48;;;;;;;74.40;29.83;;;2.00;99.90;;;;;;5110649;28;20024;-89
2022/12/02 02:48:15;;;;;;;78.85;29.65;;;2.10;99.90;;;;;;5081589;28;20024;-89
2022/12/02 02:50:44;;;;;;;83.10;30.73;;;2.00;99.90;;;;;;5100529;28;20479;-89
2022/12/02 02:53:13;;;;;;;74.85;29.23;;;2.10;99.90;;;;;;5096662;28;20023;-89
2022/12/02 02:55:40;;;;;;;87.97;33.72;;;2.10;99.90;;;;;;5088541;28;20525;-89
2022/12/02 02:58:12;;;;;;;82.75;31.77;;;2.10;99.90;;;;;;5100066;28;20031;-89
2022/12/02 03:00:40;;;;;;;76.20;29.88;;;2.10;99.90;;;;;;5093034;28;20450;-88
2022/12/02 03:03:08;;;;;;;86.20;30.35;;;2.10;99.90;;;;;;5090288;28;20458;-89
2022/12/02 03:05:34;;;;;;;80.72;29.10;;;2.00;99.90;;;;;;5097404;28;20024;-89
2022/12/02 03:08:00;;;;;;;81.05;30.00;;;2.00;99.90;;;;;;5106757;28;20524;-89
2022/12/02 03:10:26;;;;;;;77.38;28.00;;;1.90;99.90;;;;;;5089765;28;20047;-88
2022/12/02 03:12:52;;;;;;;84.88;31.02;;;2.00;99.90;;;;;;5091487;28;20022;-88
2022/12/02 03:15:21;;;;;;;75.15;29.80;;;1.90;99.90;;;;;;5095230;28;20019;-89
2022/12/02 03:17:47;;;;;;;80.38;30.13;;;1.90;99.90;;;;;;5086710;28;20115;-88
2022/12/02 03:20:12;;;;;;;81.65;29.45;;;1.90;99.90;;;;;;5089848;28;20027;-89
2022/12/02 03:22:38;;;;;;;89.15;30.45;;;1.90;99.90;;;;;;5098594;28;20027;-88
2022/12/02 03:25:05;;;;;;;80.28;30.83;;;1.90;99.90;;;;;;5104105;28;20020;-89
2022/12/02 03:27:31;;;;;;;93.50;29.60;;;1.90;99.90;;;;;;5095481;28;20023;-88
2022/12/02 03:29:57;;;;;;;81.53;30.23;;;1.80;99.90;;;;;;5092146;28;20119;-88
2022/12/02 03:32:24;;;;;;;90.90;30.85;;;1.90;99.90;;;;;;5101517;28;20356;-89
2022/12/02 03:34:50;;;;;;;82.80;29.40;;;1.80;99.90;;;;;;5096512;28;20024;-88
2022/12/02 03:37:15;;;;;;;87.70;29.85;;;1.90;99.90;;;;;;5093274;28;20031;-89
2022/12/02 03:39:41;;;;;;;90.97;29.88;;;1.80;99.90;;;;;;5097662;28;20027;-88
2022/12/02 03:42:07;;;;;;;83.90;29.40;;;1.80;99.90;;;;;;5092981;28;20038;-88
2022/12/02 03:44:32;;;;;;;90.93;31.27;;;1.80;99.90;;;;;;5094930;28;20409;-88
2022/12/02 03:46:59;;;;;;;91.63;29.98;;;1.80;99.90;;;;;;5103089;28;20458;-88
2022/12/02 03:49:25;;;;;;;92.32;30.95;;;1.80;99.90;;;;;;5089100;28;20016;-88
2022/12/02 03:51:51;;;;;;;93.18;31.88;;;1.80;99.90;;;;;;5099227;28;20032;-89
2022/12/02 03:54:17;;;;;;;80.38;30.58;;;1.80;99.90;;;;;;5102584;28;20073;-89
2022/12/02 03:56:43;;;;;;;90.88;30.55;;;1.90;99.90;;;;;;5102849;28;20482;-88
2022/12/02 03:59:16;;;;;;;97.57;31.08;;;1.80;99.90;;;;;;5092051;28;20032;-89
2022/12/02 04:01:42;;;;;;;97.47;31.45;;;1.70;99.90;;;;;;5096341;28;20035;-88
2022/12/02 04:04:08;;;;;;;99.50;30.88;;;1.80;99.90;;;;;;5083014;28;20020;-88
2022/12/02 04:06:33;;;;;;;93.60;31.88;;;1.80;99.90;;;;;;5093703;28;20125;-89
2022/12/02 04:08:59;;;;;;;88.20;30.00;;;1.80;99.90;;;;;;5081883;28;20085;-89
2022/12/02 04:11:25;;;;;;;105.35;33.20;;;1.80;99.90;;;;;;5109648;28;20038;-88
2022/12/02 04:13:50;;;;;;;107.30;31.90;;;1.70;99.90;;;;;;5086426;28;20032;-88
2022/12/02 04:16:16;;;;;;;92.13;31.98;;;1.80;99.90;;;;;;5091244;28;20036;-88
2022/12/02 04:18:42;;;;;;;107.75;32.90;;;1.80;99.90;;;;;;5104757;28;20033;-89
2022/12/02 04:21:08;;;;;;;107.88;35.10;;;1.70;99.90;;;;;;5097734;28;20028;-88
2022/12/02 04:23:33;;;;;;;102.55;34.35;;;1.70;99.90;;;;;;5093521;28;20038;-88
2022/12/02 04:25:59;;;;;;;95.82;30.38;;;1.70;99.90;;;;;;5080286;28;20037;-87
2022/12/02 04:28:25;;;;;;;102.15;31.58;;;1.70;99.90;;;;;;5070571;28;20036;-88
2022/12/02 04:30:51;;;;;;;100.43;32.33;;;1.70;99.90;;;;;;5072155;28;20028;-88
2022/12/02 04:33:17;;;;;;;109.03;31.00;;;1.70;99.90;;;;;;5086068;28;20066;-88
2022/12/02 04:35:42;;;;;;;112.72;32.92;;;1.70;99.90;;;;;;5114432;27;20482;-88
2022/12/02 04:38:08;;;;;;;107.10;31.50;;;1.70;99.90;;;;;;5079510;28;20028;-88
2022/12/02 04:40:34;;;;;;;126.05;35.15;;;1.70;99.90;;;;;;5088195;28;20042;-89
2022/12/02 04:43:00;;;;;;;103.78;32.15;;;1.70;99.90;;;;;;5079393;28;20055;-88
2022/12/02 04:45:25;;;;;;;111.43;33.05;;;1.70;99.90;;;;;;5092090;28;20101;-89
2022/12/02 04:47:51;;;;;;;106.00;32.45;;;1.70;99.90;;;;;;5105771;28;20501;-88
2022/12/02 04:50:17;;;;;;;111.22;35.78;;;1.70;99.90;;;;;;5104616;28;20028;-88
2022/12/02 04:52:42;;;;;;;100.00;31.35;;;1.70;99.90;;;;;;5095251;28;20033;-88
2022/12/02 04:55:08;;;;;;;106.95;31.67;;;1.70;99.90;;;;;;5091761;28;20028;-88
2022/12/02 04:57:34;;;;;;;109.57;34.25;;;1.70;99.90;;;;;;5077297;28;20056;-88
2022/12/02 05:00:00;;;;;;;106.35;32.53;;;1.70;99.90;;;;;;5095984;28;20027;-88
2022/12/02 05:02:26;;;;;;;100.07;33.65;;;1.70;99.90;;;;;;5083633;28;20422;-88
2022/12/02 05:04:51;;;;;;;96.80;32.47;;;1.70;99.90;;;;;;5080801;28;20066;-88
2022/12/02 05:07:17;;;;;;;106.32;31.65;;;1.70;99.90;;;;;;5088396;28;20023;-88
2022/12/02 05:09:43;;;;;;;94.18;32.45;;;1.70;99.90;;;;;;5095168;28;20429;-88
2022/12/02 05:12:08;;;;;;;100.10;30.65;;;1.70;99.90;;;;;;5090888;28;20051;-88
2022/12/02 05:14:34;;;;;;;91.68;32.00;;;1.60;99.90;;;;;;5093492;28;20040;-89
2022/12/02 05:17:00;;;;;;;101.20;30.67;;;1.70;99.90;;;;;;5088153;28;20063;-88
2022/12/02 05:19:25;;;;;;;97.18;31.92;;;1.70;99.90;;;;;;5085456;28;20029;-89
2022/12/02 05:21:51;;;;;;;93.32;29.60;;;1.70;99.90;;;;;;5097282;28;20063;-88
2022/12/02 05:24:17;;;;;;;87.93;31.17;;;1.70;99.90;;;;;;5088217;28;20034;-88
2022/12/02 05:26:42;;;;;;;96.47;32.08;;;1.70;99.90;;;;;;5094699;28;20028;-88
2022/12/02 05:29:08;;;;;;;101.38;31.52;;;1.70;99.90;;;;;;5091128;28;20383;-88
2022/12/02 05:31:34;;;;;;;103.18;32.17;;;1.70;99.90;;;;;;5078981;28;20029;-88
2022/12/02 05:33:59;;;;;;;97.38;30.83;;;1.70;99.90;;;;;;5095768;28;20387;-88
2022/12/02 05:36:25;;;;;;;95.35;31.73;;;1.70;99.90;;;;;;5099547;28;20078;-88
2022/12/02 05:38:51;;;;;;;109.85;31.58;;;1.60;99.90;;;;;;5096285;28;21134;-89
2022/12/02 05:41:16;;;;;;;97.28;32.70;;;1.70;99.90;;;;;;5103014;28;20039;-89
2022/12/02 05:43:42;;;;;;;107.15;33.10;;;1.70;99.90;;;;;;5094798;28;20033;-88
2022/12/02 05:46:19;;;;;;;96.22;31.08;;;1.60;99.90;;;;;;5090831;28;20024;-88
2022/12/02 05:48:47;;;;;;;93.28;31.80;;;1.70;99.90;;;;;;5101597;28;20070;-88
2022/12/02 05:51:19;;;;;;;99.13;31.83;;;1.70;99.90;;;;;;5091306;28;20039;-88
2022/12/02 05:53:47;;;;;;;105.10;33.38;;;1.70;99.90;;;;;;5097863;28;20085;-87
2022/12/02 05:56:21;;;;;;;96.15;31.05;;;1.60;99.90;;;;;;5101890;28;20122;-87
2022/12/02 05:58:47;;;;;;;101.82;31.02;;;1.60;99.90;;;;;;5078474;28;20028;-87
2022/12/02 06:01:25;;;;;;;103.25;31.38;;;1.60;99.90;;;;;;5096740;28;20028;-87
2022/12/02 06:03:51;;;;;;;91.55;32.80;;;1.70;99.90;;;;;;5088064;28;20040;-87
2022/12/02 06:06:22;;;;;;;98.43;30.30;;;1.60;99.90;;;;;;5086189;28;20025;-88
2022/12/02 06:08:48;;;;;;;86.85;31.35;;;1.60;99.90;;;;;;5091573;28;20444;-87
2022/12/02 06:11:27;;;;;;;87.88;29.42;;;1.60;99.90;;;;;;5099484;28;20054;-88
2022/12/02 06:13:57;;;;;;;89.03;29.80;;;1.60;99.90;;;;;;5086762;28;20088;-88
2022/12/02 06:16:26;;;;;;;93.30;30.85;;;1.60;99.90;;;;;;5105670;28;20036;-88
2022/12/02 06:18:53;;;;;;;87.63;29.83;;;1.60;99.90;;;;;;5088129;28;20479;-88
2022/12/02 06:21:20;;;;;;;86.80;31.23;;;1.60;99.90;;;;;;5092921;28;20459;-88
2022/12/02 06:23:49;;;;;;;91.53;30.95;;;1.60;99.90;;;;;;5071163;28;20519;-88
2022/12/02 06:26:17;;;;;;;83.63;29.83;;;1.60;99.90;;;;;;5070683;28;20054;-88
2022/12/02 06:28:46;;;;;;;88.47;31.05;;;1.60;99.90;;;;;;5078511;28;20077;-88
2022/12/02 06:31:27;;;;;;;77.43;28.05;;;1.60;99.90;;;;;;5074176;28;20033;-88
2022/12/02 06:33:56;;;;;;;92.75;30.35;;;1.70;99.90;;;;;;5070602;28;20035;-89
2022/12/02 06:36:25;;;;;;;82.45;28.27;;;1.60;99.90;;;;;;5078865;28;20028;-88
2022/12/02 06:39:10;;;;;;;80.65;27.50;;;1.60;99.90;;;;;;5078594;28;20100;-87
2022/12/02 06:41:36;;;;;;;86.78;28.42;;;1.60;99.90;;;;;;5094577;28;20109;-88
2022/12/02 06:47:32;;;;;;;86.15;27.92;;;1.60;99.90;;;;;;5087603;28;20036;-87
2022/12/02 06:50:04;;;;;;;91.32;28.48;;;1.60;99.90;;;;;;5079512;28;20031;-88
2022/12/02 06:52:43;;;;;;;80.55;28.27;;;1.50;99.90;;;;;;5074621;28;20120;-88
2022/12/02 06:55:31;;;;;;;80.93;27.95;;;1.50;99.90;;;;;;5065137;28;20032;-88
2022/12/02 06:58:18;;;;;;;101.57;31.23;;;1.50;99.90;;;;;;5093338;28;20498;-88
2022/12/02 07:00:44;;;;;;;86.32;29.55;;;1.50;99.90;;;;;;5082487;28;20033;-89
2022/12/02 07:03:30;;;;;;;98.70;33.20;;;1.50;99.90;;;;;;5077296;28;20376;-89
2022/12/02 07:06:23;;;;;;;125.22;40.83;;;1.50;99.90;;;;;;5062663;28;20103;-88
2022/12/02 07:08:50;;;;;;;99.05;36.08;;;1.50;99.90;;;;;;5077557;28;20036;-88
2022/12/02 07:11:49;;;;;;;91.97;31.20;;;1.60;99.90;;;;;;5078753;28;20028;-89
2022/12/02 07:14:27;;;;;;;90.38;30.52;;;1.60;99.90;;;;;;5068538;28;20036;-88
2022/12/02 07:16:55;;;;;;;74.22;25.52;;;1.60;99.90;;;;;;5079565;28;20024;-88
2022/12/02 07:19:38;;;;;;;79.45;28.45;;;1.60;99.90;;;;;;5105819;28;20111;-88
2022/12/02 07:22:27;;;;;;;85.60;28.13;;;1.50;99.90;;;;;;5063304;28;20497;-88
2022/12/02 07:25:26;;;;;;;72.57;27.80;;;1.50;99.90;;;;;;5090710;28;20016;-89
2022/12/02 07:27:52;;;;;;;75.22;27.15;;;1.60;99.90;;;;;;5098623;28;20032;-88
2022/12/02 07:30:31;;;;;;;88.35;29.85;;;1.50;99.90;;;;;;5077265;28;20020;-88
2022/12/02 07:32:58;;;;;;;86.63;28.83;;;1.40;99.90;;;;;;5094434;28;20081;-88
2022/12/02 07:35:25;;;;;;;83.82;29.92;;;1.40;99.90;;;;;;5077324;28;20028;-88
2022/12/02 07:37:51;;;;;;;74.18;28.92;;;1.50;99.90;;;;;;5077128;28;20028;-89
2022/12/02 07:40:18;;;;;;;92.40;29.67;;;1.50;99.90;;;;;;5094158;28;20031;-88
2022/12/02 07:42:44;;;;;;;94.25;32.15;;;1.50;99.90;;;;;;5076491;28;20032;-88
2022/12/02 07:45:12;;;;;;;87.22;30.75;;;1.50;99.90;;;;;;5071445;28;20571;-89
2022/12/02 07:47:38;;;;;;;105.00;36.42;;;1.50;99.90;;;;;;5076850;28;20035;-88
2022/12/02 07:50:05;;;;;;;97.43;31.63;;;1.60;99.90;;;;;;5077179;28;20036;-88
2022/12/02 07:52:31;;;;;;;92.80;32.05;;;1.50;99.90;;;;;;5067546;28;20032;-88
2022/12/02 07:54:56;;;;;;;96.75;31.42;;;1.50;99.90;;;;;;5076850;28;20035;-88
2022/12/02 07:57:22;;;;;;;95.28;31.90;;;1.50;99.90;;;;;;5073582;28;20020;-88
2022/12/02 07:59:48;;;;;;;89.75;29.98;;;1.60;99.90;;;;;;5076202;28;20035;-88
2022/12/02 08:02:14;;;;;;;87.97;29.88;;;1.60;99.90;;;;;;5076000;28;20048;-88
2022/12/02 08:04:40;;;;;;;103.57;30.88;;;1.60;99.90;;;;;;5069360;28;20029;-89
2022/12/02 08:07:06;;;;;;;91.10;31.67;;;1.60;99.90;;;;;;5092651;28;20028;-88
2022/12/02 08:09:32;;;;;;;98.82;32.88;;;1.60;99.90;;;;;;5076004;28;20047;-88
2022/12/02 08:11:57;;;;;;;98.20;30.88;;;1.60;99.90;;;;;;5101078;28;20102;-88
2022/12/02 08:14:23;;;;;;;93.00;30.80;;;1.60;99.90;;;;;;5073069;28;20218;-87
2022/12/02 08:16:49;;;;;;;97.35;29.23;;;1.60;99.90;;;;;;5080293;28;20033;-87
2022/12/02 08:19:15;;;;;;;94.75;27.60;;;1.60;99.90;;;;;;5081164;28;20023;-87
2022/12/02 08:21:41;;;;;;;97.28;31.92;;;1.50;99.90;;;;;;5073849;28;20032;-87
2022/12/02 08:24:07;;;;;;;81.43;29.58;;;1.60;99.90;;;;;;5085207;28;20024;-88
2022/12/02 08:26:34;;;;;;;88.32;30.73;;;1.60;99.90;;;;;;5075687;28;20032;-89
2022/12/02 08:29:00;;;;;;;89.80;32.08;;;1.60;99.90;;;;;;5093601;28;20544;-88
2022/12/02 08:31:26;;;;;;;94.50;32.08;;;1.60;99.90;;;;;;5076417;28;20027;-88
2022/12/02 08:33:52;;;;;;;95.68;28.58;;;1.70;99.90;;;;;;5091139;28;20127;-89
2022/12/02 08:36:18;;;;;;;85.18;31.30;;;1.70;99.90;;;;;;5087662;28;20115;-88
2022/12/02 08:38:44;;;;;;;102.05;31.63;;;1.70;99.90;;;;;;5075812;28;20081;-88
2022/12/02 08:41:11;;;;;;;87.70;30.30;;;1.70;99.90;;;;;;5075401;28;20032;-88
2022/12/02 08:43:37;;;;;;;106.10;35.67;;;1.70;99.90;;;;;;5085872;28;20037;-88
2022/12/02 08:46:04;;;;;;;111.13;33.67;;;1.70;99.90;;;;;;5068693;28;20024;-88
2022/12/02 08:48:30;;;;;;;100.72;30.95;;;1.70;99.90;;;;;;5082416;28;20116;-88
2022/12/02 08:50:56;;;;;;;87.68;30.08;;;1.70;99.90;;;;;;5091931;28;20054;-88
2022/12/02 08:53:22;;;;;;;77.82;28.38;;;1.60;99.90;;;;;;5069777;28;20031;-89
2022/12/02 08:55:48;;;;;;;80.50;26.92;;;1.60;99.90;;;;;;5072162;28;20025;-89
2022/12/02 08:58:14;;;;;;;75.25;27.45;;;1.60;99.90;;;;;;5093471;28;20383;-89
2022/12/02 09:00:40;;;;;;;63.72;23.98;;;1.70;99.90;;;;;;5073368;28;20017;-88
2022/12/02 09:03:07;;;;;;;54.97;20.80;;;1.60;99.90;;;;;;5070379;28;20031;-88
2022/12/02 09:05:35;;;;;;;48.90;19.98;;;1.60;99.90;;;;;;5074565;28;20081;-88
2022/12/02 09:08:01;;;;;;;43.22;18.10;;;1.60;99.90;;;;;;5091882;28;20383;-88
2022/12/02 09:10:27;;;;;;;42.72;17.33;;;1.60;99.90;;;;;;5091348;28;20028;-88
2022/12/02 09:12:53;;;;;;;39.22;17.55;;;1.70;99.90;;;;;;5088589;28;20472;-88
2022/12/02 09:15:19;;;;;;;35.17;15.85;;;1.70;99.90;;;;;;5080177;28;20447;-88
2022/12/02 09:17:46;;;;;;;32.45;15.25;;;1.70;99.90;;;;;;5065241;28;20040;-88
2022/12/02 09:20:12;;;;;;;32.85;15.18;;;1.70;99.90;;;;;;5074637;28;20114;-88
2022/12/02 09:22:38;;;;;;;35.75;15.20;;;1.70;99.90;;;;;;5074118;28;20032;-88
2022/12/02 09:25:04;;;;;;;38.72;17.70;;;1.70;99.90;;;;;;5074855;28;20031;-88
2022/12/02 09:27:30;;;;;;;31.85;14.77;;;1.60;99.90;;;;;;5074893;28;20024;-88
2022/12/02 09:29:55;;;;;;;32.38;15.30;;;1.70;99.90;;;;;;5074584;28;20085;-87
2022/12/02 09:32:21;;;;;;;26.75;13.98;;;1.70;99.90;;;;;;5086382;28;20406;-87
2022/12/02 09:34:47;;;;;;;34.67;15.40;;;1.70;99.90;;;;;;5092604;28;20115;-88
2022/12/02 09:37:13;;;;;;;37.25;17.83;;;1.60;99.90;;;;;;5089646;28;20024;-88
2022/12/02 09:39:38;;;;;;;32.50;15.27;;;1.70;99.90;;;;;;5085057;28;20039;-88
2022/12/02 09:42:08;;;;;;;36.60;16.65;;;1.70;99.90;;;;;;5094146;28;20375;-88
2022/12/02 09:44:36;;;;;;;39.63;17.92;;;1.70;99.90;;;;;;5091512;28;20024;-88
2022/12/02 09:47:01;;;;;;;38.28;16.70;;;1.70;99.90;;;;;;5099066;28;20118;-87
2022/12/02 09:49:27;;;;;;;34.72;15.38;;;1.70;99.90;;;;;;5092772;28;20751;-88
2022/12/02 09:51:58;;;;;;;27.40;14.18;;;1.70;99.90;;;;;;5086155;28;20127;-87
2022/12/02 09:54:24;;;;;;;25.33;13.48;;;1.60;99.90;;;;;;5106085;28;20024;-87
2022/12/02 09:56:49;;;;;;;23.55;12.80;;;1.60;99.90;;;;;;5090431;28;20060;-88
2022/12/02 09:59:16;;;;;;;30.60;14.88;;;1.60;99.90;;;;;;5075536;28;20032;-87
2022/12/02 10:01:44;;;;;;;26.73;13.80;;;1.60;99.90;;;;;;5105840;28;20031;-87
2022/12/02 10:04:13;;;;;;;25.40;12.80;;;1.50;99.90;;;;;;5094339;28;20032;-87
2022/12/02 10:06:40;;;;;;;25.50;13.25;;;1.50;99.90;;;;;;5107101;28;20020;-88
2022/12/02 10:09:09;;;;;;;27.48;13.68;;;1.50;99.90;;;;;;5080058;28;20114;-87
2022/12/02 10:11:35;;;;;;;28.98;13.85;;;1.50;99.90;;;;;;5108013;28;20085;-87
2022/12/02 10:14:05;;;;;;;37.72;17.50;;;1.50;99.90;;;;;;5082603;28;20660;-87
2022/12/02 10:16:33;;;;;;;33.28;16.77;;;1.50;99.90;;;;;;5092049;28;20040;-88
2022/12/02 10:19:04;;;;;;;42.28;19.45;;;1.50;99.90;;;;;;5102465;28;20081;-88
2022/12/02 10:21:30;;;;;;;34.10;15.88;;;1.40;99.90;;;;;;5092728;28;20032;-87
2022/12/02 10:24:00;;;;;;;29.50;15.82;;;1.50;99.90;;;;;;5109654;28;20035;-88
2022/12/02 10:26:26;;;;;;;25.35;13.60;;;1.50;99.90;;;;;;5077751;28;20696;-88
2022/12/02 10:28:59;;;;;;;27.15;13.90;;;1.50;99.90;;;;;;5110958;28;20095;-87
2022/12/02 10:31:25;;;;;;;29.77;14.60;;;1.40;99.90;;;;;;5096063;28;20447;-88
2022/12/02 10:33:55;;;;;;;28.17;14.80;;;1.50;99.90;;;;;;5097416;28;20086;-88
2022/12/02 10:36:31;;;;;;;30.40;15.20;;;1.60;99.90;;;;;;5085385;28;20036;-88
2022/12/02 10:39:15;;;;;;;26.05;13.30;;;1.70;99.90;;;;;;5076297;28;20059;-88
2022/12/02 10:41:41;;;;;;;24.15;12.65;;;1.60;99.90;;;;;;5077198;28;20130;-87
2022/12/02 10:44:21;;;;;;;25.65;13.48;;;1.50;99.90;;;;;;5091258;28;20431;-88
2022/12/02 10:46:47;;;;;;;24.23;12.98;;;1.50;99.90;;;;;;5072482;28;20118;-87
2022/12/02 10:49:27;;;;;;;23.02;12.57;;;1.60;99.90;;;;;;5075844;28;20371;-87
2022/12/02 10:51:54;;;;;;;21.92;12.55;;;1.60;99.90;;;;;;5091854;28;20046;-87
2022/12/02 10:54:27;;;;;;;26.40;13.70;;;1.60;99.90;;;;;;5085892;28;20056;-87
2022/12/02 10:56:55;;;;;;;32.42;15.50;;;1.60;99.90;;;;;;5076221;28;20039;-87
2022/12/02 10:59:22;;;;;;;17.92;10.95;;;1.50;99.90;;;;;;5078774;28;20059;-86
2022/12/02 11:01:48;;;;;;;20.15;11.13;;;1.50;99.90;;;;;;5063913;28;20028;-86
2022/12/02 11:04:15;;;;;;;20.88;11.50;;;1.50;99.90;;;;;;5074408;28;20047;-86
2022/12/02 11:06:42;;;;;;;18.38;11.65;;;1.50;99.90;;;;;;5076103;28;20074;-86
2022/12/02 11:09:21;;;;;;;22.15;12.23;;;1.60;99.90;;;;;;5061848;28;20529;-86
2022/12/02 11:11:47;;;;;;;20.65;12.15;;;1.50;99.90;;;;;;5072348;28;20060;-86
2022/12/02 11:14:39;;;;;;;24.65;12.73;;;1.60;99.90;;;;;;5081512;28;20036;-86
2022/12/02 11:17:42;;;;;;;22.85;12.85;;;1.60;99.90;;;;;;5083431;28;20059;-86
2022/12/02 11:20:20;;;;;;;21.08;12.40;;;1.50;99.90;;;;;;5075474;28;20394;-86
2022/12/02 11:22:58;;;;;;;23.65;12.50;;;1.50;99.90;;;;;;5080917;28;20085;-86
2022/12/02 11:25:42;;;;;;;28.27;13.63;;;1.50;99.90;;;;;;5101927;28;20023;-86
2022/12/02 11:28:27;;;;;;;23.13;12.27;;;1.50;99.90;;;;;;5087843;28;20729;-86
2022/12/02 11:31:19;;;;;;;24.50;13.85;;;1.50;99.90;;;;;;5105919;28;20072;-86
2022/12/02 11:33:48;;;;;;;21.45;12.05;;;1.50;99.90;;;;;;5094772;28;20541;-86
2022/12/02 11:36:23;;;;;;;26.45;13.65;;;1.60;99.90;;;;;;5103356;28;20467;-86
2022/12/02 11:38:52;;;;;;;26.80;14.57;;;1.60;99.90;;;;;;5096226;28;20136;-85
2022/12/02 11:41:25;;;;;;;30.10;14.55;;;1.50;99.90;;;;;;5087244;28;20027;-86
2022/12/02 11:43:51;;;;;;;25.77;13.27;;;1.50;99.90;;;;;;5097294;28;20342;-86
2022/12/02 11:46:19;;;;;;;28.83;15.43;;;1.40;99.90;;;;;;5079531;28;20023;-86
2022/12/02 11:48:52;;;;;;;33.20;16.45;;;1.40;99.90;;;;;;5097954;28;20046;-86
2022/12/02 11:51:39;;;;;;;31.23;15.95;;;1.40;99.90;;;;;;5102714;28;20373;-86
2022/12/02 11:54:13;;;;;;;28.38;15.30;;;1.30;99.90;;;;;;5096461;28;20020;-87
2022/12/02 11:56:39;;;;;;;31.50;16.02;;;1.30;99.90;;;;;;5070468;28;20077;-87
2022/12/02 11:59:19;;;;;;;28.05;14.20;;;1.30;99.90;;;;;;5077758;28;20075;-86
2022/12/02 12:01:45;;;;;;;33.70;16.85;;;1.30;99.90;;;;;;5089138;28;20436;-88
2022/12/02 12:04:24;;;;;;;28.92;14.20;;;1.20;99.90;;;;;;5075421;28;20070;-87
2022/12/02 12:06:58;;;;;;;30.92;15.80;;;1.30;99.90;;;;;;5076420;28;20032;-87
2022/12/02 12:09:24;;;;;;;37.35;18.83;;;1.30;99.90;;;;;;5059244;28;20032;-87
2022/12/02 12:12:06;;;;;;;33.35;16.90;;;1.30;99.90;;;;;;5082071;28;20020;-87
2022/12/02 12:14:32;;;;;;;36.40;17.48;;;1.30;99.90;;;;;;5081141;28;20035;-87
2022/12/02 12:17:28;;;;;;;38.30;18.98;;;1.20;99.90;;;;;;5057317;28;20047;-87
2022/12/02 12:19:53;;;;;;;35.70;17.30;;;1.20;99.90;;;;;;5087852;28;20031;-87
2022/12/02 12:22:28;;;;;;;38.53;19.30;;;1.20;99.90;;;;;;5074692;28;20537;-86
2022/12/02 12:25:14;;;;;;;35.53;16.77;;;1.20;99.90;;;;;;5090455;28;20114;-87
2022/12/02 12:27:40;;;;;;;34.53;17.00;;;1.20;99.90;;;;;;5060039;28;20031;-87
2022/12/02 12:30:06;;;;;;;43.90;19.38;;;1.30;99.90;;;;;;5092476;28;20680;-87
2022/12/02 12:32:32;;;;;;;42.30;19.35;;;1.20;99.90;;;;;;5074977;28;20028;-87
2022/12/02 12:34:58;;;;;;;50.08;24.23;;;1.20;99.90;;;;;;5067740;28;20032;-87
2022/12/02 12:37:23;;;;;;;36.00;17.48;;;1.20;99.90;;;;;;5062524;28;20369;-85
2022/12/02 12:39:49;;;;;;;37.15;18.38;;;1.10;99.90;;;;;;5081566;28;20043;-87
2022/12/02 12:42:15;;;;;;;35.28;16.60;;;1.20;99.90;;;;;;5072558;28;20548;-87
2022/12/02 12:44:40;;;;;;;36.10;18.17;;;1.00;99.90;;;;;;5076898;28;20533;-88
2022/12/02 12:47:06;;;;;;;39.28;19.27;;;1.00;99.90;;;;;;5088241;28;20039;-87
2022/12/02 12:49:33;;;;;;;38.97;19.70;;;1.00;99.90;;;;;;5070655;28;20039;-87